Time;durP1;ratioP1;P1;durP2;ratioP2;P2;SDS_P1;SDS_P2;PMS_P1;PMS_P2;Temp;Humidity;BMP_temperature;BMP_pressure;BME280_temperature;BME280_humidity;BME280_pressure;Samples;Min_cycle;Max_cycle;Signal;HPM_P1;HPM_P2
2023/06/25 00:00:52;;;;;;;9.95;5.97;;;19.70;99.90;;;;;;5061866;28;20147;-56
2023/06/25 00:03:18;;;;;;;6.55;5.40;;;19.70;99.90;;;;;;5075528;28;20048;-56
2023/06/25 00:05:48;;;;;;;8.90;5.50;;;19.70;99.90;;;;;;5075392;28;20036;-56
2023/06/25 00:08:16;;;;;;;7.32;5.70;;;19.70;99.90;;;;;;5075474;28;20040;-56
2023/06/25 00:10:41;;;;;;;7.75;5.13;;;19.60;99.90;;;;;;5075534;28;20390;-56
2023/06/25 00:13:07;;;;;;;6.90;5.63;;;19.50;99.90;;;;;;5075888;28;20048;-56
2023/06/25 00:15:36;;;;;;;10.93;6.70;;;19.50;99.90;;;;;;5108068;28;20041;-56
2023/06/25 00:18:05;;;;;;;5.88;5.28;;;19.60;99.90;;;;;;5075427;28;20126;-55
2023/06/25 00:20:34;;;;;;;7.85;5.30;;;19.60;99.90;;;;;;5073701;28;20056;-56
2023/06/25 00:23:01;;;;;;;5.95;5.35;;;19.60;99.90;;;;;;5075553;28;20043;-56
2023/06/25 00:25:30;;;;;;;7.90;5.18;;;19.50;99.90;;;;;;5075478;28;20047;-55
2023/06/25 00:27:57;;;;;;;5.53;4.93;;;19.50;99.90;;;;;;5075066;28;20025;-56
2023/06/25 00:30:25;;;;;;;7.88;5.68;;;19.60;99.90;;;;;;5075014;28;20411;-57
2023/06/25 00:32:54;;;;;;;6.43;5.82;;;19.40;99.90;;;;;;5074907;28;20498;-56
2023/06/25 00:35:26;;;;;;;6.63;5.43;;;19.40;99.90;;;;;;5075231;28;20045;-56
2023/06/25 00:38:00;;;;;;;7.00;5.28;;;19.40;99.90;;;;;;5075528;28;20215;-56
2023/06/25 00:40:28;;;;;;;6.63;4.95;;;19.30;99.90;;;;;;5075471;28;20044;-56
2023/06/25 00:42:58;;;;;;;5.30;4.78;;;19.30;99.90;;;;;;5075222;28;20119;-56
2023/06/25 00:45:25;;;;;;;7.25;5.55;;;19.40;99.90;;;;;;5065780;28;20045;-55
2023/06/25 00:47:54;;;;;;;6.97;5.30;;;19.40;99.90;;;;;;5075031;28;20433;-56
2023/06/25 00:50:24;;;;;;;5.85;5.25;;;19.40;99.90;;;;;;5075041;28;20024;-55
2023/06/25 00:52:57;;;;;;;8.98;5.75;;;19.30;99.90;;;;;;5072725;28;20199;-55
2023/06/25 00:55:24;;;;;;;7.72;6.03;;;19.30;99.90;;;;;;5064712;28;20052;-56
2023/06/25 00:57:56;;;;;;;8.18;5.40;;;19.30;99.90;;;;;;5074740;28;20044;-56
2023/06/25 01:00:25;;;;;;;7.72;5.00;;;19.30;99.90;;;;;;5075017;28;20115;-56
2023/06/25 01:03:13;;;;;;;7.03;5.70;;;19.20;99.90;;;;;;5074390;28;20425;-56
2023/06/25 01:05:58;;;;;;;6.85;6.05;;;19.20;99.90;;;;;;5074718;28;20493;-55
2023/06/25 01:08:28;;;;;;;9.82;6.03;;;19.00;99.90;;;;;;5073596;28;20421;-55
2023/06/25 01:10:56;;;;;;;10.20;6.32;;;19.10;99.90;;;;;;5073599;28;20063;-56
2023/06/25 01:13:24;;;;;;;9.00;6.60;;;19.00;99.90;;;;;;5074830;28;20052;-55
2023/06/25 01:16:05;;;;;;;8.60;6.38;;;19.00;99.90;;;;;;5074656;28;20043;-55
2023/06/25 01:18:33;;;;;;;8.05;5.68;;;19.00;99.90;;;;;;5069955;28;20491;-55
2023/06/25 01:21:01;;;;;;;8.57;6.38;;;19.00;99.90;;;;;;5063917;28;20119;-55
2023/06/25 01:23:30;;;;;;;10.38;6.65;;;19.00;99.90;;;;;;5074076;28;20049;-56
2023/06/25 01:26:03;;;;;;;7.90;6.43;;;19.00;99.90;;;;;;5073761;28;20044;-55
2023/06/25 01:28:29;;;;;;;7.47;6.03;;;19.10;99.90;;;;;;5074197;28;20037;-55
2023/06/25 01:30:57;;;;;;;10.45;6.85;;;19.00;99.90;;;;;;5073870;28;20110;-55
2023/06/25 01:33:27;;;;;;;7.95;6.57;;;18.90;99.90;;;;;;5073972;28;20049;-55
2023/06/25 01:35:58;;;;;;;9.25;7.03;;;19.00;99.90;;;;;;5074153;28;20525;-56
2023/06/25 01:38:26;;;;;;;8.90;6.13;;;19.00;99.90;;;;;;5074049;28;20044;-56
2023/06/25 01:40:54;;;;;;;9.38;6.90;;;18.90;99.90;;;;;;5074170;28;20565;-55
2023/06/25 01:43:21;;;;;;;9.70;5.82;;;18.90;99.90;;;;;;5074030;28;20074;-55
2023/06/25 01:45:51;;;;;;;8.25;6.72;;;19.00;99.90;;;;;;5073884;28;20056;-56
2023/06/25 01:48:21;;;;;;;8.60;6.43;;;19.00;99.90;;;;;;5073908;28;20037;-56
2023/06/25 01:50:50;;;;;;;7.65;6.53;;;19.00;99.90;;;;;;5073870;28;20404;-55
2023/06/25 01:53:21;;;;;;;10.82;6.65;;;19.10;99.90;;;;;;5065281;28;20095;-56
2023/06/25 01:55:50;;;;;;;10.77;6.60;;;19.00;99.90;;;;;;5067410;28;20083;-56
2023/06/25 01:58:15;;;;;;;;;;;19.10;99.90;;;;;;5074154;28;20044;-56
2023/06/25 02:00:45;;;;;;;12.57;6.40;;;19.10;99.90;;;;;;5073692;28;19923;-56
2023/06/25 02:03:14;;;;;;;9.52;6.85;;;19.10;99.90;;;;;;5073985;28;20036;-55
2023/06/25 02:05:44;;;;;;;11.55;7.57;;;19.10;99.90;;;;;;5073692;28;20150;-55
2023/06/25 02:08:11;;;;;;;7.40;6.47;;;19.10;99.90;;;;;;5073038;28;20521;-56
2023/06/25 02:10:39;;;;;;;11.13;7.85;;;19.00;99.90;;;;;;5074197;28;20529;-55
2023/06/25 02:13:06;;;;;;;9.63;7.65;;;19.10;99.90;;;;;;5073868;28;20040;-56
2023/06/25 02:15:36;;;;;;;12.30;8.40;;;19.10;99.90;;;;;;5073572;28;20051;-55
2023/06/25 02:18:04;;;;;;;10.13;8.18;;;19.10;99.90;;;;;;5073476;28;20072;-56
2023/06/25 02:20:31;;;;;;;11.27;7.57;;;19.10;99.90;;;;;;5073643;28;20051;-56
2023/06/25 02:23:01;;;;;;;10.50;7.60;;;19.00;99.90;;;;;;5072959;28;20517;-55
2023/06/25 02:25:30;;;;;;;11.65;8.48;;;19.00;99.90;;;;;;5073689;28;20040;-55
2023/06/25 02:27:57;;;;;;;13.55;8.40;;;19.00;99.90;;;;;;5073268;28;20091;-56
2023/06/25 02:30:28;;;;;;;9.68;8.38;;;19.00;99.90;;;;;;5072651;28;20132;-55
2023/06/25 02:33:03;;;;;;;11.00;8.70;;;19.00;99.90;;;;;;5073152;28;20055;-56
2023/06/25 02:35:31;;;;;;;15.60;10.20;;;19.00;99.90;;;;;;5073379;28;20044;-56
2023/06/25 02:38:01;;;;;;;11.52;9.38;;;18.90;99.90;;;;;;5072878;28;20093;-55
2023/06/25 02:40:29;;;;;;;12.43;9.43;;;18.90;99.90;;;;;;5073129;28;20355;-56
2023/06/25 02:43:01;;;;;;;12.80;9.48;;;18.90;99.90;;;;;;5072536;28;20120;-56
2023/06/25 02:45:29;;;;;;;14.88;9.95;;;18.90;99.90;;;;;;5072784;28;20044;-55
2023/06/25 02:47:57;;;;;;;13.13;10.50;;;18.80;99.90;;;;;;5072408;28;20097;-55
2023/06/25 02:50:27;;;;;;;14.68;10.18;;;18.80;99.90;;;;;;5071519;28;20489;-56
2023/06/25 02:52:53;;;;;;;15.32;11.02;;;18.80;99.90;;;;;;5067390;28;20098;-56
2023/06/25 02:55:20;;;;;;;12.00;10.35;;;18.80;99.90;;;;;;5064045;28;20131;-55
2023/06/25 02:57:49;;;;;;;14.88;11.18;;;18.80;99.90;;;;;;5072781;28;20041;-56
2023/06/25 03:00:16;;;;;;;13.60;11.00;;;18.80;99.90;;;;;;5072747;28;20048;-56
2023/06/25 03:02:44;;;;;;;13.53;10.57;;;18.80;99.90;;;;;;5072307;28;20102;-56
2023/06/25 03:05:12;;;;;;;13.97;11.47;;;18.80;99.90;;;;;;5072578;28;20040;-55
2023/06/25 03:07:49;;;;;;;15.75;11.13;;;18.70;99.90;;;;;;5072297;28;20032;-55
2023/06/25 03:10:16;;;;;;;16.02;11.80;;;18.70;99.90;;;;;;5072875;28;20386;-55
2023/06/25 03:12:44;;;;;;;11.80;10.15;;;18.70;99.90;;;;;;5072330;28;20033;-56
2023/06/25 03:15:10;;;;;;;14.43;10.82;;;18.70;99.90;;;;;;5072467;28;20040;-56
2023/06/25 03:17:38;;;;;;;14.75;10.63;;;18.70;99.90;;;;;;5072252;28;20050;-55
2023/06/25 03:20:04;;;;;;;14.20;11.17;;;18.70;99.90;;;;;;5071321;28;20455;-55
2023/06/25 03:22:31;;;;;;;16.00;11.75;;;18.70;99.90;;;;;;5072540;28;20076;-55
2023/06/25 03:25:03;;;;;;;17.63;10.85;;;18.70;99.90;;;;;;5072325;28;20123;-55
2023/06/25 03:27:34;;;;;;;12.18;10.55;;;18.70;99.90;;;;;;5072686;28;20068;-55
2023/06/25 03:30:01;;;;;;;12.48;10.43;;;18.70;99.90;;;;;;5071724;28;20044;-55
2023/06/25 03:32:28;;;;;;;14.88;10.85;;;18.70;99.90;;;;;;5072014;28;20052;-55
2023/06/25 03:34:59;;;;;;;11.85;9.90;;;18.70;99.90;;;;;;5071962;28;20557;-55
2023/06/25 03:37:25;;;;;;;14.02;10.60;;;18.70;99.90;;;;;;5072720;28;20047;-55
2023/06/25 03:39:52;;;;;;;14.68;10.65;;;18.70;99.90;;;;;;5072033;28;20075;-55
2023/06/25 03:42:21;;;;;;;13.48;10.70;;;18.70;99.90;;;;;;5071896;28;20052;-55
2023/06/25 03:44:53;;;;;;;12.38;10.77;;;18.70;99.90;;;;;;5072051;28;20049;-55
2023/06/25 03:47:24;;;;;;;14.00;11.05;;;18.70;99.90;;;;;;5071932;28;20041;-56
2023/06/25 03:49:56;;;;;;;14.18;10.60;;;18.70;99.90;;;;;;5071842;28;20090;-56
2023/06/25 03:52:22;;;;;;;13.07;10.90;;;18.70;99.90;;;;;;5070872;28;20066;-56
2023/06/25 03:54:52;;;;;;;11.40;10.20;;;18.70;99.90;;;;;;5058903;28;20090;-56
2023/06/25 03:57:22;;;;;;;12.57;10.43;;;18.70;99.90;;;;;;5072027;28;20036;-55
2023/06/25 04:00:25;;;;;;;15.73;11.25;;;18.70;99.90;;;;;;5071874;28;20044;-55
2023/06/25 04:02:52;;;;;;;16.70;10.73;;;18.80;99.90;;;;;;5071788;28;20086;-55
2023/06/25 04:05:23;;;;;;;12.77;10.13;;;18.80;99.90;;;;;;5071770;28;20051;-55
2023/06/25 04:07:55;;;;;;;13.45;10.60;;;18.70;99.90;;;;;;5071687;28;20469;-55
2023/06/25 04:10:24;;;;;;;13.10;11.20;;;18.80;99.90;;;;;;5071920;28;20478;-55
2023/06/25 04:12:54;;;;;;;13.65;11.05;;;18.80;99.90;;;;;;5071571;28;20108;-55
2023/06/25 04:15:24;;;;;;;15.90;11.70;;;18.80;99.90;;;;;;5072149;28;20040;-55
2023/06/25 04:17:50;;;;;;;14.45;10.88;;;18.80;99.90;;;;;;5071558;28;20093;-55
2023/06/25 04:20:16;;;;;;;13.70;11.18;;;18.80;99.90;;;;;;5071892;28;20425;-55
2023/06/25 04:22:43;;;;;;;13.50;10.95;;;18.90;99.90;;;;;;5071742;28;20052;-55
2023/06/25 04:25:15;;;;;;;13.73;11.27;;;18.90;99.90;;;;;;5071851;28;20128;-55
2023/06/25 04:27:50;;;;;;;17.90;11.20;;;18.80;99.90;;;;;;5072116;28;20044;-55
2023/06/25 04:30:20;;;;;;;15.32;11.30;;;18.90;99.90;;;;;;5072047;28;20043;-55
2023/06/25 04:32:49;;;;;;;16.65;11.65;;;18.90;99.90;;;;;;5075075;28;20044;-56
2023/06/25 04:35:23;;;;;;;14.90;10.52;;;19.00;99.90;;;;;;5074053;28;20474;-56
2023/06/25 04:37:50;;;;;;;16.00;10.48;;;19.00;99.90;;;;;;5075250;28;20047;-55
2023/06/25 04:40:20;;;;;;;10.65;9.20;;;19.00;99.90;;;;;;5075077;28;20066;-55
2023/06/25 04:42:48;;;;;;;12.20;9.48;;;19.20;99.90;;;;;;5075226;28;20044;-55
2023/06/25 04:45:19;;;;;;;11.02;8.13;;;19.20;99.90;;;;;;5075056;28;20051;-55
2023/06/25 04:47:45;;;;;;;12.15;9.43;;;19.30;99.90;;;;;;5075347;28;20032;-55
2023/06/25 04:50:13;;;;;;;9.65;8.13;;;19.30;99.90;;;;;;5075220;28;20033;-55
2023/06/25 04:52:40;;;;;;;10.18;8.95;;;19.40;99.90;;;;;;5072378;28;20378;-56
2023/06/25 04:55:08;;;;;;;9.07;8.00;;;19.50;99.90;;;;;;5064490;28;20041;-57
2023/06/25 04:57:38;;;;;;;11.15;8.27;;;19.50;99.90;;;;;;5074919;28;20114;-57
2023/06/25 05:00:05;;;;;;;9.40;7.60;;;19.70;99.90;;;;;;5075423;28;20051;-57
2023/06/25 05:02:35;;;;;;;8.63;7.43;;;19.70;99.90;;;;;;5074776;28;20453;-57
2023/06/25 05:05:04;;;;;;;10.55;8.50;;;19.80;99.90;;;;;;5074734;28;20036;-57
2023/06/25 05:07:31;;;;;;;8.93;7.70;;;19.90;99.90;;;;;;5074617;28;20049;-57
2023/06/25 05:09:59;;;;;;;11.10;7.72;;;19.90;99.90;;;;;;5074695;28;20434;-57
2023/06/25 05:12:25;;;;;;;;;;;20.00;99.90;;;;;;5075477;28;20120;-57
2023/06/25 05:14:52;;;;;;;8.18;7.13;;;20.20;99.90;;;;;;5073403;28;20019;-57
2023/06/25 05:17:20;;;;;;;8.98;6.90;;;20.20;99.90;;;;;;5074626;28;20110;-57
2023/06/25 05:19:49;;;;;;;8.57;7.40;;;20.30;99.90;;;;;;5074592;28;20098;-57
2023/06/25 05:25:53;;;;;;;9.00;6.32;;;20.50;99.90;;;;;;5065030;28;20612;-57
2023/06/25 05:28:24;;;;;;;9.10;6.50;;;20.70;99.90;;;;;;5074786;28;20032;-57
2023/06/25 05:30:50;;;;;;;7.63;6.05;;;20.80;99.90;;;;;;5074519;28;20486;-57
2023/06/25 05:33:19;;;;;;;8.20;5.90;;;20.80;99.90;;;;;;5074759;28;20047;-58
2023/06/25 05:35:48;;;;;;;7.55;6.43;;;20.90;99.90;;;;;;5074476;28;20044;-57
2023/06/25 05:38:15;;;;;;;6.22;5.63;;;21.00;99.90;;;;;;5074683;28;20044;-57
2023/06/25 05:40:42;;;;;;;9.30;5.90;;;21.10;99.90;;;;;;5074196;28;20057;-57
2023/06/25 05:43:10;;;;;;;10.15;6.03;;;21.10;99.90;;;;;;5073167;28;20040;-57
2023/06/25 05:45:40;;;;;;;6.68;5.50;;;21.20;99.90;;;;;;5072105;28;20483;-57
2023/06/25 05:48:09;;;;;;;7.53;5.35;;;21.30;99.90;;;;;;5074269;28;20100;-58
2023/06/25 05:50:38;;;;;;;7.03;5.53;;;21.40;99.90;;;;;;5074196;28;20036;-57
2023/06/25 05:53:09;;;;;;;6.63;4.65;;;21.50;99.90;;;;;;5067138;28;20597;-57
2023/06/25 05:55:35;;;;;;;6.18;5.57;;;21.60;99.90;;;;;;5067558;28;20138;-57
2023/06/25 05:58:03;;;;;;;10.23;5.15;;;21.70;99.90;;;;;;5074096;28;20111;-55
2023/06/25 06:00:31;;;;;;;7.75;5.10;;;21.80;99.90;;;;;;5073747;28;20044;-55
2023/06/25 06:02:57;;;;;;;6.72;5.03;;;21.90;99.90;;;;;;5077608;28;20036;-55
2023/06/25 06:05:22;;;;;;;5.50;5.00;;;22.00;99.90;;;;;;5083534;28;20044;-55
2023/06/25 06:07:52;;;;;;;8.45;5.63;;;22.10;99.90;;;;;;5073510;28;20032;-55
2023/06/25 06:10:19;;;;;;;10.20;6.10;;;22.20;99.90;;;;;;5073644;28;20121;-55
2023/06/25 06:12:46;;;;;;;6.25;4.80;;;22.30;99.90;;;;;;5073981;28;20037;-55
2023/06/25 06:15:16;;;;;;;6.30;5.38;;;22.30;99.90;;;;;;5073430;28;20494;-55
2023/06/25 06:17:43;;;;;;;7.28;5.22;;;22.50;99.90;;;;;;5072873;28;20051;-54
2023/06/25 06:20:11;;;;;;;6.65;5.43;;;22.50;99.90;;;;;;5073520;28;20047;-55
2023/06/25 06:22:41;;;;;;;11.18;5.28;;;22.70;99.90;;;;;;5073534;28;20507;-55
2023/06/25 06:25:07;;;;;;;7.57;5.18;;;22.80;99.90;;;;;;5073110;28;20126;-55
2023/06/25 06:27:38;;;;;;;7.35;4.78;;;22.90;99.90;;;;;;5071733;28;20056;-56
2023/06/25 06:30:07;;;;;;;9.05;5.20;;;22.90;99.90;;;;;;5072911;28;20129;-55
2023/06/25 06:32:36;;;;;;;7.20;4.68;;;23.10;99.90;;;;;;5072950;28;20088;-55
2023/06/25 06:35:05;;;;;;;9.45;5.20;;;23.20;99.90;;;;;;5072929;28;20032;-55
2023/06/25 06:37:36;;;;;;;8.10;5.38;;;23.30;99.90;;;;;;5073001;28;20036;-55
2023/06/25 06:40:06;;;;;;;6.65;4.80;;;23.40;99.90;;;;;;5072959;28;20124;-55
2023/06/25 06:42:37;;;;;;;6.65;5.60;;;23.50;99.90;;;;;;5073179;28;20040;-55
2023/06/25 06:48:31;;;;;;;5.85;4.80;;;23.80;99.90;;;;;;5030769;28;20100;-56
2023/06/25 06:50:58;;;;;;;8.43;6.07;;;23.90;99.90;;;;;;5030940;28;20087;-55
2023/06/25 06:53:28;;;;;;;9.07;7.15;;;24.00;99.90;;;;;;5030402;28;20441;-56
2023/06/25 06:55:55;;;;;;;10.70;6.00;;;24.10;99.90;;;;;;5030473;28;20053;-55
2023/06/25 06:58:21;;;;;;;9.68;6.70;;;24.20;99.90;;;;;;5030621;28;20098;-55
2023/06/25 07:00:49;;;;;;;10.68;7.03;;;24.30;99.90;;;;;;5030502;28;20052;-56
2023/06/25 07:03:18;;;;;;;10.45;6.80;;;24.50;99.90;;;;;;5030469;28;20041;-55
2023/06/25 07:05:45;;;;;;;12.32;8.43;;;24.70;99.90;;;;;;5030454;28;20489;-56
2023/06/25 07:08:11;;;;;;;13.40;6.90;;;24.70;99.90;;;;;;5030197;28;20133;-56
2023/06/25 07:10:37;;;;;;;10.75;6.95;;;24.90;99.90;;;;;;5030313;28;20152;-56
2023/06/25 07:13:06;;;;;;;9.82;6.68;;;25.00;99.90;;;;;;5029998;28;20461;-56
2023/06/25 07:15:31;;;;;;;;;;;25.20;99.90;;;;;;5030798;28;20067;-56
2023/06/25 07:17:58;;;;;;;9.48;7.78;;;25.30;99.90;;;;;;5030178;28;20512;-55
2023/06/25 07:20:26;;;;;;;12.00;7.10;;;25.40;99.90;;;;;;5030480;28;20094;-55
2023/06/25 07:22:57;;;;;;;8.30;7.07;;;25.50;99.90;;;;;;5030545;28;20415;-56
2023/06/25 07:25:25;;;;;;;8.40;6.70;;;25.80;99.90;;;;;;5051845;28;20055;-55
2023/06/25 07:27:51;;;;;;;9.15;7.88;;;26.10;99.90;;;;;;5072069;28;20032;-56
2023/06/25 07:30:18;;;;;;;10.50;7.95;;;26.00;99.90;;;;;;5072240;28;20090;-55
2023/06/25 07:32:47;;;;;;;9.88;8.88;;;26.30;99.90;;;;;;5072373;28;20106;-55
2023/06/25 07:35:15;;;;;;;9.63;7.50;;;26.40;99.90;;;;;;5072352;28;20544;-56
2023/06/25 07:37:45;;;;;;;14.63;8.13;;;26.40;99.90;;;;;;5070290;28;20090;-56
2023/06/25 07:40:12;;;;;;;15.65;8.00;;;26.60;99.90;;;;;;5072394;28;20107;-56
2023/06/25 07:42:39;;;;;;;9.73;8.55;;;26.70;99.90;;;;;;5072563;28;20387;-56
2023/06/25 07:45:07;;;;;;;8.95;7.60;;;26.80;99.90;;;;;;5072293;28;20072;-56
2023/06/25 07:47:33;;;;;;;10.10;6.72;;;26.80;99.90;;;;;;5072020;28;20037;-56
2023/06/25 07:50:04;;;;;;;12.98;7.45;;;27.00;99.90;;;;;;5072619;28;20105;-56
2023/06/25 07:52:30;;;;;;;8.35;7.38;;;27.20;99.90;;;;;;5070317;28;20051;-56
2023/06/25 07:54:58;;;;;;;10.77;8.43;;;27.30;99.90;;;;;;5060090;28;20111;-56
2023/06/25 07:57:28;;;;;;;10.23;8.13;;;27.40;99.90;;;;;;5071989;28;20040;-56
2023/06/25 07:59:55;;;;;;;11.65;7.55;;;27.50;99.90;;;;;;5072211;28;20032;-56
2023/06/25 08:02:21;;;;;;;10.63;8.82;;;27.70;99.90;;;;;;5071839;28;20049;-56
2023/06/25 08:04:51;;;;;;;11.77;7.78;;;28.00;99.90;;;;;;5071666;28;20044;-56
2023/06/25 08:07:47;;;;;;;15.27;8.82;;;28.00;99.90;;;;;;5076468;28;20047;-56
2023/06/25 08:10:13;;;;;;;9.00;8.10;;;27.90;99.90;;;;;;5095897;28;20081;-56
2023/06/25 08:12:43;;;;;;;7.68;6.93;;;28.10;99.90;;;;;;5076111;28;20036;-56
2023/06/25 08:15:12;;;;;;;8.82;7.70;;;28.50;99.90;;;;;;5075930;28;20489;-57
2023/06/25 08:17:41;;;;;;;10.10;8.15;;;28.50;99.90;;;;;;5075851;28;20500;-57
2023/06/25 08:20:10;;;;;;;9.90;9.00;;;28.40;99.90;;;;;;5075929;28;20048;-57
2023/06/25 08:22:37;;;;;;;9.57;7.90;;;28.60;99.90;;;;;;5074742;28;20041;-57
2023/06/25 08:25:17;;;;;;;8.52;7.80;;;28.80;99.90;;;;;;5075549;28;20040;-57
2023/06/25 08:27:45;;;;;;;8.55;7.65;;;29.00;99.90;;;;;;5075804;28;20044;-57
2023/06/25 08:30:13;;;;;;;;;;;29.20;99.90;;;;;;5075880;28;20045;-57
2023/06/25 08:32:40;;;;;;;8.20;7.40;;;29.40;99.90;;;;;;5075160;28;19928;-57
2023/06/25 08:35:10;;;;;;;10.18;7.57;;;29.60;99.90;;;;;;5074544;28;20040;-57
2023/06/25 08:37:37;;;;;;;8.50;7.68;;;29.90;99.90;;;;;;5075751;28;20115;-57
2023/06/25 08:40:04;;;;;;;8.07;7.07;;;30.10;99.90;;;;;;5074656;28;20062;-57
2023/06/25 08:42:31;;;;;;;9.55;8.18;;;30.30;99.90;;;;;;5075301;28;20475;-58
2023/06/25 08:44:57;;;;;;;8.70;7.43;;;30.20;99.90;;;;;;5075146;28;20537;-58
2023/06/25 08:47:29;;;;;;;7.05;6.40;;;30.40;99.90;;;;;;5074941;28;20080;-58
2023/06/25 08:49:57;;;;;;;8.10;6.82;;;30.70;99.90;;;;;;5074965;28;20029;-58
2023/06/25 08:52:25;;;;;;;10.02;6.53;;;30.80;99.90;;;;;;5074230;28;20037;-58
2023/06/25 08:54:54;;;;;;;8.18;6.25;;;31.00;99.90;;;;;;5062289;28;20036;-58
2023/06/25 08:57:24;;;;;;;8.18;6.65;;;31.10;99.90;;;;;;5074904;28;20047;-58
2023/06/25 08:59:50;;;;;;;7.97;6.72;;;31.20;99.90;;;;;;5081603;28;20082;-58
2023/06/25 09:02:18;;;;;;;8.45;6.55;;;31.30;99.90;;;;;;5082647;28;20479;-58
2023/06/25 09:04:46;;;;;;;6.43;5.88;;;31.40;99.90;;;;;;5074816;28;20040;-58
2023/06/25 09:07:16;;;;;;;9.15;5.40;;;31.50;99.60;;;;;;5074433;28;20131;-58
2023/06/25 09:09:51;;;;;;;6.68;5.43;;;31.80;99.90;;;;;;5074273;28;20032;-58
2023/06/25 09:12:24;;;;;;;8.38;6.55;;;31.70;99.40;;;;;;5075126;28;20033;-58
2023/06/25 09:14:54;;;;;;;6.93;6.22;;;31.60;99.50;;;;;;5074939;28;20047;-58
2023/06/25 09:17:24;;;;;;;8.13;5.80;;;31.80;99.10;;;;;;5073407;28;20036;-58
2023/06/25 09:19:52;;;;;;;7.07;6.38;;;31.80;99.90;;;;;;5074738;28;20386;-58
2023/06/25 09:22:19;;;;;;;8.23;5.82;;;32.00;99.70;;;;;;5074674;28;20036;-58
2023/06/25 09:24:52;;;;;;;6.40;4.75;;;32.00;98.90;;;;;;5073760;28;20048;-58
2023/06/25 09:27:24;;;;;;;7.50;5.53;;;32.30;99.00;;;;;;5074569;28;20047;-58
2023/06/25 09:29:55;;;;;;;8.13;5.00;;;32.20;98.00;;;;;;5072919;28;20044;-58
2023/06/25 09:32:25;;;;;;;6.13;5.53;;;32.40;98.90;;;;;;5073963;28;20044;-58
2023/06/25 09:34:52;;;;;;;6.00;5.22;;;32.20;97.90;;;;;;5074204;28;20390;-58
2023/06/25 09:37:20;;;;;;;5.18;4.60;;;32.40;97.30;;;;;;5073978;28;20075;-58
2023/06/25 09:39:48;;;;;;;6.15;5.55;;;32.30;97.20;;;;;;5074077;28;20048;-58
2023/06/25 09:42:16;;;;;;;;;;;32.30;97.20;;;;;;5074312;28;20099;-58
2023/06/25 09:44:48;;;;;;;6.47;5.88;;;32.60;98.60;;;;;;5074036;28;19916;-58
2023/06/25 09:47:20;;;;;;;5.65;4.95;;;32.40;97.50;;;;;;5073998;28;20042;-58
2023/06/25 09:50:26;;;;;;;5.80;5.20;;;32.40;96.80;;;;;;5074265;28;20076;-58
2023/06/25 09:52:58;;;;;;;5.35;4.88;;;32.60;97.20;;;;;;5057939;28;20035;-59
2023/06/25 09:55:26;;;;;;;7.03;4.63;;;32.70;97.40;;;;;;5065993;28;20036;-58
2023/06/25 09:57:55;;;;;;;4.55;4.13;;;32.60;96.70;;;;;;5088092;28;20477;-58
2023/06/25 10:00:26;;;;;;;5.75;4.35;;;32.80;96.90;;;;;;5073842;28;20119;-58
2023/06/25 10:02:52;;;;;;;6.70;4.68;;;32.70;96.70;;;;;;5073735;28;20037;-58
2023/06/25 10:05:25;;;;;;;5.07;4.30;;;32.90;96.70;;;;;;5073125;28;20431;-58
2023/06/25 10:07:54;;;;;;;8.93;5.72;;;33.10;96.50;;;;;;5073397;28;20043;-58
2023/06/25 10:10:23;;;;;;;8.75;4.70;;;32.90;96.80;;;;;;5073864;28;20040;-58
2023/06/25 10:12:50;;;;;;;6.32;4.30;;;32.80;96.50;;;;;;5073695;28;20082;-58
2023/06/25 10:15:30;;;;;;;4.80;4.30;;;32.70;96.70;;;;;;5073767;28;20054;-58
2023/06/25 10:18:04;;;;;;;5.35;4.85;;;32.90;96.50;;;;;;5073296;28;20392;-58
2023/06/25 10:20:34;;;;;;;5.90;4.82;;;33.00;96.80;;;;;;5073573;28;20044;-58
2023/06/25 10:23:13;;;;;;;6.97;5.40;;;32.70;96.80;;;;;;5072827;28;20048;-58
2023/06/25 10:25:53;;;;;;;9.23;5.63;;;33.10;96.80;;;;;;5073045;28;20044;-58
2023/06/25 10:28:31;;;;;;;7.50;5.32;;;33.20;96.40;;;;;;5072996;28;20040;-58
2023/06/25 10:31:03;;;;;;;5.72;4.50;;;33.30;96.40;;;;;;5073037;28;20061;-58
2023/06/25 10:33:30;;;;;;;9.13;5.80;;;33.40;96.80;;;;;;5073011;28;20047;-58
2023/06/25 10:36:02;;;;;;;5.15;4.55;;;33.40;96.10;;;;;;5073411;28;20052;-58
2023/06/25 10:38:28;;;;;;;8.27;5.75;;;33.60;96.10;;;;;;5072907;28;20090;-58
2023/06/25 10:40:57;;;;;;;6.57;4.63;;;33.60;95.60;;;;;;5073261;28;20082;-58
2023/06/25 10:43:23;;;;;;;6.15;4.82;;;33.70;96.30;;;;;;5072434;28;20053;-58
2023/06/25 10:45:54;;;;;;;6.63;4.65;;;33.50;96.00;;;;;;5072896;28;20046;-58
2023/06/25 10:48:21;;;;;;;6.38;5.07;;;33.80;96.00;;;;;;5072730;28;20517;-59
2023/06/25 10:50:48;;;;;;;5.40;4.90;;;33.90;95.60;;;;;;5072818;28;20110;-58
2023/06/25 10:53:25;;;;;;;8.80;4.20;;;33.80;95.10;;;;;;5064418;28;20056;-58
2023/06/25 10:55:55;;;;;;;5.28;4.68;;;33.70;95.20;;;;;;5068045;28;20270;-58
2023/06/25 10:58:25;;;;;;;5.68;4.15;;;33.40;95.10;;;;;;5070886;28;20131;-58
2023/06/25 11:00:55;;;;;;;4.97;4.50;;;33.70;95.50;;;;;;5072597;28;20044;-58
2023/06/25 11:03:24;;;;;;;5.72;4.72;;;33.70;95.10;;;;;;5072691;28;20041;-58
2023/06/25 11:05:50;;;;;;;6.93;4.18;;;33.60;94.80;;;;;;5072666;28;20065;-58
2023/06/25 11:08:16;;;;;;;8.63;4.88;;;33.70;94.40;;;;;;5072606;28;20036;-58
2023/06/25 11:10:43;;;;;;;5.25;3.80;;;33.70;94.80;;;;;;5072395;28;20048;-58
2023/06/25 11:13:13;;;;;;;5.60;4.50;;;33.70;94.90;;;;;;5072864;28;20036;-58
2023/06/25 11:15:40;;;;;;;4.65;4.20;;;33.70;94.30;;;;;;5071543;28;20044;-58
2023/06/25 11:18:11;;;;;;;3.88;3.50;;;33.60;94.80;;;;;;5054859;28;20049;-58
2023/06/25 11:20:39;;;;;;;3.92;3.53;;;33.90;95.50;;;;;;5052027;28;20431;-59
2023/06/25 11:23:06;;;;;;;4.63;3.40;;;34.10;95.50;;;;;;5052629;28;20116;-58
2023/06/25 11:25:35;;;;;;;5.43;4.00;;;34.50;95.30;;;;;;5052043;28;20495;-58
2023/06/25 11:28:11;;;;;;;4.57;4.07;;;34.40;94.20;;;;;;5052016;28;20065;-58
2023/06/25 11:30:37;;;;;;;4.45;3.58;;;34.30;93.50;;;;;;5052644;28;20036;-57
2023/06/25 11:33:11;;;;;;;4.97;3.28;;;34.30;94.20;;;;;;5052554;28;20119;-58
2023/06/25 11:35:38;;;;;;;4.00;3.55;;;34.20;93.70;;;;;;5052085;28;20033;-58
2023/06/25 11:38:05;;;;;;;4.70;3.43;;;34.50;95.40;;;;;;5052056;28;20115;-58
2023/06/25 11:40:34;;;;;;;3.92;2.95;;;34.30;94.50;;;;;;5051468;28;20033;-58
2023/06/25 11:43:00;;;;;;;3.50;3.20;;;34.40;94.00;;;;;;5051889;28;20036;-58
2023/06/25 11:45:26;;;;;;;6.05;3.17;;;34.50;94.50;;;;;;5052081;28;20036;-58
2023/06/25 11:47:53;;;;;;;4.32;3.47;;;34.60;93.10;;;;;;5051927;28;20387;-58
2023/06/25 11:50:24;;;;;;;6.05;2.78;;;34.50;92.70;;;;;;5052079;28;20036;-58
2023/06/25 11:52:54;;;;;;;3.65;3.10;;;34.20;92.90;;;;;;5051872;28;20399;-58
2023/06/25 11:56:07;;;;;;;3.13;2.83;;;34.20;92.40;;;;;;5063410;28;20041;-59
2023/06/25 11:58:33;;;;;;;3.95;3.13;;;34.20;91.90;;;;;;5061653;28;20047;-58
2023/06/25 12:01:03;;;;;;;2.30;2.10;;;34.00;92.70;;;;;;5071881;28;20119;-58
2023/06/25 12:03:31;;;;;;;3.50;2.70;;;34.10;92.90;;;;;;5072927;28;20044;-58
2023/06/25 12:06:02;;;;;;;3.88;2.65;;;34.20;92.60;;;;;;5072090;28;20495;-58
2023/06/25 12:08:29;;;;;;;3.72;2.95;;;34.20;93.10;;;;;;5071830;28;20593;-58
2023/06/25 12:11:01;;;;;;;4.50;2.85;;;34.00;92.50;;;;;;5071899;28;20436;-58
2023/06/25 12:13:29;;;;;;;6.30;3.33;;;33.90;92.20;;;;;;5071999;28;20048;-58
2023/06/25 12:16:01;;;;;;;3.83;3.47;;;34.10;92.40;;;;;;5071870;28;20036;-58
2023/06/25 12:18:29;;;;;;;2.85;2.60;;;34.10;92.40;;;;;;5071860;28;20036;-58
2023/06/25 12:20:58;;;;;;;3.00;2.45;;;34.00;93.00;;;;;;5071789;28;20045;-58
2023/06/25 12:23:26;;;;;;;3.08;2.78;;;33.90;92.40;;;;;;5072069;28;20446;-58
2023/06/25 12:25:52;;;;;;;2.53;2.25;;;34.10;92.50;;;;;;5070433;28;20045;-58
2023/06/25 12:28:22;;;;;;;2.33;2.08;;;34.10;92.90;;;;;;5071500;28;20044;-58
2023/06/25 12:30:52;;;;;;;3.30;2.30;;;34.10;92.80;;;;;;5071406;28;20048;-58
2023/06/25 12:33:20;;;;;;;4.70;2.38;;;34.30;92.50;;;;;;5072077;28;20047;-58
2023/06/25 12:35:52;;;;;;;2.53;2.15;;;34.00;92.50;;;;;;5071362;28;20100;-58
2023/06/25 12:38:23;;;;;;;5.10;2.80;;;34.00;93.20;;;;;;5071816;28;20091;-58
2023/06/25 12:40:56;;;;;;;2.85;2.58;;;34.00;93.50;;;;;;5071757;28;20423;-58
2023/06/25 12:43:27;;;;;;;4.13;3.08;;;33.90;91.80;;;;;;5071643;28;20135;-58
2023/06/25 12:45:57;;;;;;;3.63;3.17;;;34.00;91.80;;;;;;5071715;28;20159;-58
2023/06/25 12:48:27;;;;;;;5.22;2.42;;;33.90;91.10;;;;;;5070997;28;20049;-58
2023/06/25 12:50:56;;;;;;;6.47;2.50;;;33.90;92.10;;;;;;5058226;28;20040;-58
2023/06/25 12:53:24;;;;;;;3.78;3.03;;;33.90;91.90;;;;;;5065718;28;20388;-58
2023/06/25 12:55:50;;;;;;;4.05;3.10;;;33.80;92.50;;;;;;5068799;28;20052;-58
2023/06/25 12:58:18;;;;;;;4.97;2.92;;;33.70;90.80;;;;;;5074946;28;20045;-58
2023/06/25 13:00:46;;;;;;;4.05;3.03;;;33.80;91.40;;;;;;5074950;28;20036;-58